Patriot, Indiana
Current Conditions -  °F | °C
As of 4:52 AM on Sunday 25 Jan 2015 (Local Time) from KCVG Reporting Station
Overcast Overcast  
Wind Chill: 29°   Ceiling: 16000
Heat Index: 36°   Visibility: 10mi
Dew Point: 30°   Wind: 9mph
Humidity: 79%   Direction: 200°SSW
Pressure: 29.73"   Gusts: NA
Location:  38.84°N, 84.83°W
Report Text: KCVG 250952Z 20008KT 10SM FEW130 OVC160 02/M01 A2973 RMK AO2 SLP072 T00221011
Loading
Personal Weather Stations






























Interactive Weather Map New forecast layout! Learn more

10-Day Weather Forecast

Advertisements
Track Severe Weather on mobile